Time;durP1;ratioP1;P1;durP2;ratioP2;P2;SDS_P1;SDS_P2;PMS_P1;PMS_P2;Temp;Humidity;BMP_temperature;BMP_pressure;BME280_temperature;BME280_humidity;BME280_pressure;Samples;Min_cycle;Max_cycle;Signal;HPM_P1;HPM_P2
2023/01/20 00:02:30;;;;;;;;;11.67;10.33;;;;;;;;6488908;39;8940;-61
2023/01/20 00:08:34;;;;;;;;;14.67;12.67;;;;;;;;6488839;46;8935;-60
2023/01/20 00:14:38;;;;;;;;;12.67;11.00;;;;;;;;6488403;39;8995;-59
2023/01/20 00:20:44;;;;;;;;;10.50;9.50;;;;;;;;6488444;39;10105;-59
2023/01/20 00:26:46;;;;;;;;;9.67;9.67;;;;;;;;6487988;39;8897;-61
2023/01/20 00:32:48;;;;;;;;;11.50;11.50;;;;;;;;6487404;31;8865;-60
2023/01/20 00:38:51;;;;;;;;;10.00;9.50;;;;;;;;6489478;39;8953;-60
2023/01/20 00:44:53;;;;;;;;;11.00;10.00;;;;;;;;6488074;46;8959;-62
2023/01/20 00:50:58;;;;;;;;;11.00;11.00;;;;;;;;6487575;46;8908;-58
2023/01/20 00:57:00;;;;;;;;;9.00;9.00;;;;;;;;6489093;31;9074;-60
2023/01/20 01:03:05;;;;;;;;;15.50;14.75;;;;;;;;6488264;39;8928;-61
2023/01/20 01:09:07;;;;;;;;;13.50;13.25;;;;;;;;6488215;39;8939;-60
2023/01/20 01:15:10;;;;;;;;;17.75;15.25;;;;;;;;6487898;31;8913;-60
2023/01/20 01:21:15;;;;;;;;;14.75;12.75;;;;;;;;6487873;31;9050;-60
2023/01/20 01:27:19;;;;;;;;;15.75;14.50;;;;;;;;6487782;39;9051;-61
2023/01/20 01:33:23;;;;;;;;;13.50;13.50;;;;;;;;6488266;31;8925;-60
2023/01/20 01:39:27;;;;;;;;;15.75;13.25;;;;;;;;6488284;46;8945;-61
2023/01/20 01:45:32;;;;;;;;;18.00;15.50;;;;;;;;6486956;31;8905;-60
2023/01/20 01:51:41;;;;;;;;;15.75;14.00;;;;;;;;6488561;39;9605;-59
2023/01/20 01:57:44;;;;;;;;;16.00;16.00;;;;;;;;6487499;39;8923;-61
2023/01/20 02:03:55;;;;;;;;;17.00;15.25;;;;;;;;6487842;39;8967;-60
2023/01/20 02:09:59;;;;;;;;;18.25;17.75;;;;;;;;6487985;39;8908;-61
2023/01/20 02:16:19;;;;;;;;;19.50;16.75;;;;;;;;6487911;39;8881;-61
2023/01/20 02:22:43;;;;;;;;;17.25;16.50;;;;;;;;6488729;46;8885;-60
2023/01/20 02:29:14;;;;;;;;;22.75;19.00;;;;;;;;6487202;39;9020;-60
2023/01/20 02:35:37;;;;;;;;;26.00;21.75;;;;;;;;6488270;31;8888;-61
2023/01/20 02:41:51;;;;;;;;;14.75;14.25;;;;;;;;6486229;47;8944;-60
2023/01/20 02:48:19;;;;;;;;;20.50;19.00;;;;;;;;6487383;47;8825;-60
2023/01/20 02:54:29;;;;;;;;;14.25;13.75;;;;;;;;6487393;39;8913;-61
2023/01/20 03:00:43;;;;;;;;;20.50;18.50;;;;;;;;6488269;39;8995;-59
2023/01/20 03:06:52;;;;;;;;;19.25;17.75;;;;;;;;6489002;39;8893;-60
2023/01/20 03:13:08;;;;;;;;;19.00;19.00;;;;;;;;6487896;39;8916;-59
2023/01/20 03:19:17;;;;;;;;;19.00;18.50;;;;;;;;6488456;39;8983;-60
2023/01/20 03:25:26;;;;;;;;;21.25;20.00;;;;;;;;6487916;39;9533;-59
2023/01/20 03:31:44;;;;;;;;;22.25;19.25;;;;;;;;6488553;39;8948;-60
2023/01/20 03:37:46;;;;;;;;;19.25;19.00;;;;;;;;6488681;46;8924;-60
2023/01/20 03:43:59;;;;;;;;;20.25;18.75;;;;;;;;6489632;39;8904;-58
2023/01/20 03:50:20;;;;;;;;;20.00;18.75;;;;;;;;6489351;39;8919;-60
2023/01/20 03:56:29;;;;;;;;;17.50;17.00;;;;;;;;6488366;39;8951;-61
2023/01/20 04:02:36;;;;;;;;;19.50;15.75;;;;;;;;6488498;46;8984;-60
2023/01/20 04:08:47;;;;;;;;;27.50;20.00;;;;;;;;6487485;39;8896;-60
2023/01/20 04:14:49;;;;;;;;;17.75;12.75;;;;;;;;6488639;46;8955;-60
2023/01/20 04:20:59;;;;;;;;;13.50;11.25;;;;;;;;6486887;39;9596;-60
2023/01/20 04:27:02;;;;;;;;;11.25;11.25;;;;;;;;6488320;46;8937;-60
2023/01/20 04:33:05;;;;;;;;;14.00;13.00;;;;;;;;6487613;31;8979;-59
2023/01/20 04:39:08;;;;;;;;;11.67;10.33;;;;;;;;6487589;39;8936;-59
2023/01/20 04:45:15;;;;;;;;;15.50;10.75;;;;;;;;6488135;39;9533;-60
2023/01/20 04:51:19;;;;;;;;;13.75;12.25;;;;;;;;6488079;46;8980;-60
2023/01/20 04:57:22;;;;;;;;;13.00;11.50;;;;;;;;6410905;36;5001437;-60
2023/01/20 05:10:12;;;;;;;;;13.67;12.67;;;;;;;;6491818;46;9064;-59
2023/01/20 05:16:24;;;;;;;;;19.00;16.25;;;;;;;;6490029;39;8890;-60
2023/01/20 05:29:16;;;;;;;;;12.50;11.00;;;;;;;;6488950;46;8934;-58
2023/01/20 05:35:36;;;;;;;;;18.67;18.67;;;;;;;;6487122;39;8943;-60
2023/01/20 05:42:14;;;;;;;;;18.67;16.00;;;;;;;;6489214;36;8907;-59
2023/01/20 05:48:27;;;;;;;;;17.00;16.00;;;;;;;;6490832;31;8870;-60
2023/01/20 05:54:33;;;;;;;;;24.50;20.25;;;;;;;;6489698;31;8939;-60
2023/01/20 06:00:41;;;;;;;;;19.25;18.00;;;;;;;;6490028;31;8898;-61
2023/01/20 06:06:51;;;;;;;;;21.00;18.75;;;;;;;;6491266;39;9722;-59
2023/01/20 06:12:56;;;;;;;;;15.00;15.00;;;;;;;;6489683;31;8990;-60
2023/01/20 06:19:00;;;;;;;;;19.75;18.50;;;;;;;;6489481;39;8940;-59
2023/01/20 06:25:03;;;;;;;;;28.00;21.25;;;;;;;;6488087;39;8920;-61
2023/01/20 06:31:15;;;;;;;;;20.33;19.00;;;;;;;;6489677;31;8866;-61
2023/01/20 06:37:26;;;;;;;;;34.75;31.50;;;;;;;;6488525;39;8943;-60
2023/01/20 06:43:34;;;;;;;;;38.25;31.75;;;;;;;;6488531;47;8964;-61
2023/01/20 06:49:43;;;;;;;;;32.33;27.00;;;;;;;;6491205;31;9133;-60
2023/01/20 06:55:58;;;;;;;;;24.67;21.67;;;;;;;;6488726;39;8864;-59
2023/01/20 07:02:15;;;;;;;;;25.25;24.25;;;;;;;;6488804;47;9056;-59
2023/01/20 07:08:27;;;;;;;;;30.00;28.00;;;;;;;;6488718;39;8995;-61
2023/01/20 07:14:41;;;;;;;;;34.33;30.33;;;;;;;;6489043;39;8870;-61
2023/01/20 07:20:53;;;;;;;;;26.33;26.33;;;;;;;;6488550;31;8987;-61
2023/01/20 07:27:10;;;;;;;;;25.67;23.67;;;;;;;;6486632;39;8905;-61
2023/01/20 07:33:18;;;;;;;;;29.00;22.33;;;;;;;;6489324;31;9332;-60
2023/01/20 07:39:29;;;;;;;;;23.00;20.67;;;;;;;;6488068;39;8965;-60
2023/01/20 07:45:45;;;;;;;;;24.00;22.67;;;;;;;;6490807;46;8944;-61
2023/01/20 07:52:06;;;;;;;;;24.33;19.33;;;;;;;;6491077;31;8948;-61
2023/01/20 07:58:14;;;;;;;;;25.00;23.00;;;;;;;;6490810;39;8946;-62
2023/01/20 08:04:27;;;;;;;;;26.33;24.33;;;;;;;;6490709;39;9072;-61
2023/01/20 08:10:46;;;;;;;;;27.00;24.00;;;;;;;;6490880;39;8905;-60
2023/01/20 08:17:12;;;;;;;;;40.67;36.67;;;;;;;;6489447;39;8917;-62
2023/01/20 08:23:23;;;;;;;;;44.67;38.33;;;;;;;;6489687;46;8825;-61
2023/01/20 08:29:56;;;;;;;;;34.00;31.33;;;;;;;;6489475;31;8886;-60
2023/01/20 08:36:34;;;;;;;;;28.00;28.00;;;;;;;;6487598;31;9078;-60
2023/01/20 08:42:41;;;;;;;;;48.75;41.25;;;;;;;;6487913;46;8974;-60
2023/01/20 08:48:58;;;;;;;;;74.75;58.00;;;;;;;;6489201;39;8919;-60
2023/01/20 09:01:48;;;;;;;;;23.67;21.67;;;;;;;;6488926;39;8997;-60
2023/01/20 09:08:11;;;;;;;;;25.00;23.67;;;;;;;;6489459;31;9023;-59
2023/01/20 09:14:36;;;;;;;;;58.67;45.33;;;;;;;;6489600;39;8905;-61
2023/01/20 09:21:09;;;;;;;;;20.67;20.00;;;;;;;;6490444;31;8977;-59
2023/01/20 09:27:50;;;;;;;;;23.00;22.00;;;;;;;;6489937;46;8939;-60
2023/01/20 09:34:17;;;;;;;;;29.67;25.67;;;;;;;;6490068;39;8836;-60
2023/01/20 09:56:45;;;;;;;;;78.50;61.50;;;;;;;;6483311;31;9073;-61
2023/01/20 10:03:35;;;;;;;;;75.25;61.25;;;;;;;;6484242;39;9125;-59
2023/01/20 10:10:44;;;;;;;;;49.67;39.67;;;;;;;;6484188;46;8958;-62
2023/01/20 10:17:44;;;;;;;;;58.50;49.00;;;;;;;;6485780;39;8875;-62
2023/01/20 10:24:43;;;;;;;;;39.33;37.00;;;;;;;;6483861;39;9008;-62
2023/01/20 10:32:48;;;;;;;;;52.67;43.67;;;;;;;;6484287;31;8994;-61
2023/01/20 10:39:39;;;;;;;;;22.00;19.00;;;;;;;;6486005;39;9684;-61
2023/01/20 10:53:59;;;;;;;;;25.67;25.33;;;;;;;;6485323;47;8910;-61
2023/01/20 11:00:53;;;;;;;;;75.00;59.50;;;;;;;;6482724;31;9004;-61
2023/01/20 11:07:18;;;;;;;;;8.33;8.00;;;;;;;;6479069;47;8963;-61
2023/01/20 11:20:30;;;;;;;;;76.25;60.25;;;;;;;;6485922;39;9056;-60
2023/01/20 11:27:19;;;;;;;;;29.67;27.00;;;;;;;;6485803;46;8895;-62
2023/01/20 11:33:38;;;;;;;;;34.67;31.00;;;;;;;;6485603;46;8981;-60
2023/01/20 11:40:26;;;;;;;;;31.67;29.00;;;;;;;;6486701;46;9002;-61
2023/01/20 11:46:44;;;;;;;;;19.33;16.33;;;;;;;;6485558;31;8957;-60
2023/01/20 11:52:50;;;;;;;;;24.00;24.00;;;;;;;;6486244;31;8957;-60
2023/01/20 11:59:03;;;;;;;;;67.00;48.67;;;;;;;;6484818;39;10097;-60
2023/01/20 12:05:27;;;;;;;;;36.67;32.33;;;;;;;;6485778;39;8938;-61
2023/01/20 12:11:44;;;;;;;;;20.00;19.67;;;;;;;;6487011;39;8943;-63
2023/01/20 12:17:58;;;;;;;;;72.67;59.00;;;;;;;;6486628;46;8863;-60
2023/01/20 12:24:26;;;;;;;;;58.50;48.50;;;;;;;;6484719;39;8934;-60
2023/01/20 12:31:02;;;;;;;;;60.33;48.33;;;;;;;;6484077;31;9054;-63
2023/01/20 12:37:28;;;;;;;;;55.67;42.67;;;;;;;;6484243;39;9077;-59
2023/01/20 12:44:06;;;;;;;;;39.33;34.00;;;;;;;;6486556;31;8984;-60
2023/01/20 12:50:51;;;;;;;;;70.75;56.75;;;;;;;;6483903;46;8907;-61
2023/01/20 12:57:52;;;;;;;;;29.33;27.00;;;;;;;;6483948;39;8887;-60
2023/01/20 13:04:36;;;;;;;;;30.33;29.33;;;;;;;;6484372;31;9099;-60
2023/01/20 13:10:54;;;;;;;;;32.67;30.67;;;;;;;;6485948;39;9067;-61
2023/01/20 13:17:09;;;;;;;;;25.33;25.33;;;;;;;;6486980;31;8981;-62
2023/01/20 13:23:16;;;;;;;;;65.25;50.25;;;;;;;;6483972;39;9062;-61
2023/01/20 13:29:33;;;;;;;;;76.50;61.75;;;;;;;;6484647;39;8935;-61
2023/01/20 13:35:45;;;;;;;;;66.67;54.00;;;;;;;;6484900;39;8920;-61
2023/01/20 13:41:52;;;;;;;;;91.00;77.00;;;;;;;;6484713;39;8998;-60
2023/01/20 13:48:22;;;;;;;;;32.33;30.67;;;;;;;;6484727;46;8954;-62
2023/01/20 13:54:33;;;;;;;;;80.25;65.50;;;;;;;;6488449;31;9741;-61
2023/01/20 14:00:38;;;;;;;;;88.25;79.75;;;;;;;;6486741;39;9193;-61
2023/01/20 14:06:53;;;;;;;;;16.00;16.00;;;;;;;;6487624;39;8934;-62
2023/01/20 14:12:57;;;;;;;;;20.00;20.00;;;;;;;;6486455;31;8966;-60
2023/01/20 14:19:15;;;;;;;;;24.00;24.00;;;;;;;;6488062;46;8927;-61
2023/01/20 14:25:24;;;;;;;;;10.67;10.67;;;;;;;;6486741;39;9832;-60
2023/01/20 14:31:42;;;;;;;;;18.67;15.00;;;;;;;;6486048;39;8957;-61
2023/01/20 14:37:51;;;;;;;;;17.33;16.33;;;;;;;;6487808;31;8915;-60
2023/01/20 14:43:55;;;;;;;;;8.33;8.33;;;;;;;;6486355;47;8977;-61
2023/01/20 14:50:05;;;;;;;;;43.33;37.33;;;;;;;;6487833;39;8894;-60
2023/01/20 14:56:20;;;;;;;;;56.50;43.50;;;;;;;;6488404;46;8898;-60
2023/01/20 15:02:31;;;;;;;;;36.33;34.67;;;;;;;;6488773;46;9049;-60
2023/01/20 15:08:37;;;;;;;;;54.00;44.25;;;;;;;;6488124;39;8902;-61
2023/01/20 15:14:53;;;;;;;;;7.00;4.00;;;;;;;;6488710;46;8873;-60
2023/01/20 15:21:26;;;;;;;;;15.67;15.00;;;;;;;;6488015;39;8910;-61
2023/01/20 15:27:33;;;;;;;;;37.00;34.00;;;;;;;;6488781;39;9059;-61
2023/01/20 15:33:37;;;;;;;;;5.33;3.00;;;;;;;;6488777;39;8922;-60
2023/01/20 15:39:41;;;;;;;;;50.33;42.33;;;;;;;;6487588;39;8914;-60
2023/01/20 15:45:46;;;;;;;;;47.00;38.00;;;;;;;;6488666;46;8929;-61
2023/01/20 15:51:52;;;;;;;;;38.33;30.67;;;;;;;;6488589;39;8903;-61
2023/01/20 15:57:59;;;;;;;;;11.33;9.67;;;;;;;;6487785;39;9519;-60
2023/01/20 16:04:30;;;;;;;;;4.33;4.33;;;;;;;;6487776;46;8958;-60
2023/01/20 16:11:11;;;;;;;;;11.33;11.33;;;;;;;;6487862;46;8910;-63
2023/01/20 16:18:19;;;;;;;;;11.33;9.67;;;;;;;;6488351;31;8911;-61
2023/01/20 16:32:18;;;;;;;;;1.00;1.00;;;;;;;;6488166;39;8901;-61
2023/01/20 16:39:14;;;;;;;;;5.33;5.00;;;;;;;;6487805;46;9034;-61
2023/01/20 16:46:38;;;;;;;;;2.00;2.00;;;;;;;;6488345;46;8913;-60
2023/01/20 16:53:10;;;;;;;;;6.00;6.00;;;;;;;;6488010;46;8874;-60
2023/01/20 16:59:25;;;;;;;;;6.00;5.00;;;;;;;;6488658;46;8885;-61
2023/01/20 17:06:16;;;;;;;;;6.67;5.00;;;;;;;;6487239;46;8938;-60
2023/01/20 17:13:12;;;;;;;;;5.67;3.00;;;;;;;;6488519;39;8933;-60
2023/01/20 17:20:00;;;;;;;;;5.67;5.67;;;;;;;;6488760;39;8881;-61
2023/01/20 17:26:46;;;;;;;;;7.33;5.33;;;;;;;;6488119;39;8948;-60
2023/01/20 17:33:15;;;;;;;;;8.33;8.33;;;;;;;;6487392;39;8942;-61
2023/01/20 17:39:26;;;;;;;;;8.33;6.33;;;;;;;;6487476;39;8910;-60
2023/01/20 17:46:40;;;;;;;;;3.00;3.00;;;;;;;;6488107;39;8969;-60
2023/01/20 17:53:43;;;;;;;;;9.33;7.67;;;;;;;;6486068;39;8889;-60
2023/01/20 18:00:30;;;;;;;;;4.33;2.33;;;;;;;;6488630;39;8985;-60
2023/01/20 18:07:26;;;;;;;;;7.67;6.33;;;;;;;;6487724;31;8918;-61
2023/01/20 18:14:12;;;;;;;;;2.00;2.00;;;;;;;;6488542;39;8895;-60
2023/01/20 18:20:49;;;;;;;;;6.00;6.00;;;;;;;;6487095;39;8934;-60
2023/01/20 18:27:54;;;;;;;;;5.33;3.67;;;;;;;;6487272;46;8895;-60
2023/01/20 18:34:33;;;;;;;;;4.33;4.33;;;;;;;;6487498;31;8882;-62
2023/01/20 18:41:02;;;;;;;;;7.00;6.00;;;;;;;;6486386;31;9061;-61
2023/01/20 18:47:42;;;;;;;;;10.00;7.00;;;;;;;;6487235;31;8871;-60
2023/01/20 18:54:03;;;;;;;;;7.00;6.00;;;;;;;;6486763;47;8916;-59
2023/01/20 19:00:39;;;;;;;;;9.75;9.75;;;;;;;;6487937;39;8907;-61
2023/01/20 19:07:40;;;;;;;;;6.25;6.25;;;;;;;;6486166;39;8944;-61
2023/01/20 19:14:41;;;;;;;;;9.75;9.75;;;;;;;;6487418;39;8883;-60
2023/01/20 19:21:19;;;;;;;;;9.25;9.25;;;;;;;;6486928;47;8908;-62
2023/01/20 19:35:11;;;;;;;;;6.25;6.25;;;;;;;;6486838;31;8912;-61
2023/01/20 19:41:58;;;;;;;;;8.00;7.50;;;;;;;;6487720;31;9788;-60
2023/01/20 19:48:42;;;;;;;;;8.00;8.00;;;;;;;;6489206;31;9079;-60
2023/01/20 19:55:25;;;;;;;;;6.00;6.00;;;;;;;;6489062;31;8877;-60
2023/01/20 20:03:05;;;;;;;;;10.25;6.00;;;;;;;;6486564;31;8954;-61
2023/01/20 20:09:56;;;;;;;;;8.25;8.25;;;;;;;;6486486;39;8879;-63
2023/01/20 20:17:07;;;;;;;;;10.50;9.75;;;;;;;;6484219;39;8936;-61
2023/01/20 20:24:26;;;;;;;;;10.25;10.25;;;;;;;;6484602;46;9106;-59
2023/01/20 20:30:31;;;;;;;;;9.75;8.50;;;;;;;;6485711;31;8879;-61
2023/01/20 20:36:34;;;;;;;;;11.50;11.50;;;;;;;;6484181;31;9178;-60
2023/01/20 20:49:21;;;;;;;;;11.75;11.75;;;;;;;;6485102;46;8963;-60
2023/01/20 20:55:54;;;;;;;;;19.50;17.75;;;;;;;;6488225;46;8993;-59
2023/01/20 21:02:43;;;;;;;;;14.50;14.50;;;;;;;;6486834;39;8944;-60
2023/01/20 21:09:20;;;;;;;;;19.00;16.25;;;;;;;;6488966;39;8881;-60
2023/01/20 21:15:41;;;;;;;;;14.00;10.00;;;;;;;;6487528;39;8923;-60
2023/01/20 21:22:10;;;;;;;;;10.00;10.00;;;;;;;;6488107;46;8948;-61
2023/01/20 21:29:02;;;;;;;;;10.75;7.75;;;;;;;;6488344;31;8888;-61
2023/01/20 21:35:45;;;;;;;;;12.25;12.25;;;;;;;;6487488;46;8892;-59
2023/01/20 21:42:12;;;;;;;;;9.75;8.00;;;;;;;;6488175;31;9041;-60
2023/01/20 21:55:54;;;;;;;;;17.50;14.75;;;;;;;;6488081;31;9014;-60
2023/01/20 22:09:18;;;;;;;;;21.25;18.25;;;;;;;;6487586;39;9013;-60
2023/01/20 22:15:53;;;;;;;;;14.50;14.50;;;;;;;;6487853;39;8896;-61
2023/01/20 22:23:00;;;;;;;;;19.00;17.25;;;;;;;;6487696;39;8891;-60
2023/01/20 22:29:58;;;;;;;;;21.75;19.50;;;;;;;;6487364;31;8907;-59
2023/01/20 22:36:25;;;;;;;;;20.25;17.00;;;;;;;;6488391;39;8978;-60
2023/01/20 22:43:30;;;;;;;;;15.25;14.00;;;;;;;;6486866;47;9105;-61
2023/01/20 22:50:30;;;;;;;;;25.00;21.50;;;;;;;;6486460;47;8905;-60
2023/01/20 22:57:06;;;;;;;;;20.50;20.00;;;;;;;;6487063;39;9530;-60
2023/01/20 23:03:41;;;;;;;;;24.50;23.25;;;;;;;;6486678;39;8993;-60
2023/01/20 23:10:06;;;;;;;;;24.50;21.00;;;;;;;;6487994;39;8859;-59
2023/01/20 23:16:22;;;;;;;;;23.00;22.50;;;;;;;;6488688;31;8993;-62
2023/01/20 23:22:24;;;;;;;;;24.50;21.75;;;;;;;;6487994;46;8955;-59
2023/01/20 23:28:37;;;;;;;;;28.50;23.75;;;;;;;;6488870;39;8890;-60
2023/01/20 23:34:48;;;;;;;;;27.25;21.00;;;;;;;;6488423;39;8882;-61
2023/01/20 23:47:24;;;;;;;;;23.25;23.25;;;;;;;;6488219;39;8901;-60
2023/01/20 23:53:51;;;;;;;;;23.75;22.25;;;;;;;;6489276;39;8899;-60
